createdAt,value
2019-06-25T00:01:29.490Z,99.90
2019-06-25T00:03:58.031Z,99.90
2019-06-25T00:06:26.595Z,99.90
2019-06-25T00:08:55.140Z,99.90
2019-06-25T00:11:23.784Z,99.90
2019-06-25T00:13:52.610Z,99.90
2019-06-25T00:16:21.192Z,99.90
2019-06-25T00:18:49.719Z,99.90
2019-06-25T00:21:18.278Z,99.90
2019-06-25T00:23:46.740Z,99.90
2019-06-25T00:26:15.282Z,99.90
2019-06-25T00:28:43.842Z,99.90
2019-06-25T00:31:12.306Z,99.90
2019-06-25T00:33:40.802Z,99.90
2019-06-25T00:36:09.339Z,99.90
2019-06-25T00:38:37.966Z,99.90
2019-06-25T00:41:06.439Z,99.90
2019-06-25T00:43:35.028Z,99.90
2019-06-25T00:46:03.553Z,99.90
2019-06-25T00:48:32.046Z,99.90
2019-06-25T00:51:00.506Z,99.90
2019-06-25T00:53:28.998Z,99.90
2019-06-25T00:55:57.867Z,99.90
2019-06-25T00:58:26.434Z,99.90
2019-06-25T01:00:54.982Z,99.90
2019-06-25T01:03:25.267Z,99.90
2019-06-25T01:05:53.822Z,99.90
2019-06-25T01:08:22.368Z,99.90
2019-06-25T01:10:50.897Z,99.90
2019-06-25T01:13:19.475Z,99.90
2019-06-25T01:15:48.011Z,99.90
2019-06-25T01:18:16.834Z,99.90
2019-06-25T01:20:45.374Z,99.90
2019-06-25T01:23:13.938Z,99.90
2019-06-25T01:25:42.411Z,99.90
2019-06-25T01:28:11.054Z,99.90
2019-06-25T01:30:39.593Z,99.90
2019-06-25T01:33:08.166Z,99.90
2019-06-25T01:35:36.706Z,99.90
2019-06-25T01:38:05.266Z,99.90
2019-06-25T01:40:33.810Z,99.90
2019-06-25T01:43:02.368Z,99.90
2019-06-25T01:45:30.912Z,99.90
2019-06-25T01:47:59.474Z,99.90
2019-06-25T01:50:27.945Z,99.90
2019-06-25T01:52:56.555Z,99.90
2019-06-25T01:55:25.117Z,99.90
2019-06-25T01:57:53.663Z,99.90
2019-06-25T02:00:23.067Z,99.90
2019-06-25T02:02:51.607Z,99.90
2019-06-25T02:05:20.387Z,99.90
2019-06-25T02:07:48.938Z,99.90
2019-06-25T02:10:17.939Z,99.90
2019-06-25T02:12:46.554Z,99.90
2019-06-25T02:15:15.742Z,99.90
2019-06-25T02:17:44.420Z,99.90
2019-06-25T02:20:13.856Z,99.90
2019-06-25T02:22:42.436Z,99.90
2019-06-25T02:25:11.555Z,99.90
2019-06-25T02:27:40.179Z,99.90
2019-06-25T02:30:10.120Z,99.90
2019-06-25T02:32:38.731Z,99.90
2019-06-25T02:35:08.039Z,99.90
2019-06-25T02:37:36.639Z,99.90
2019-06-25T02:40:10.319Z,99.90
2019-06-25T02:42:38.966Z,99.90
2019-06-25T02:45:09.178Z,99.90
2019-06-25T02:47:37.850Z,99.90
2019-06-25T02:50:10.311Z,99.90
2019-06-25T02:52:38.934Z,99.90
2019-06-25T02:55:07.725Z,99.90
2019-06-25T02:57:36.259Z,99.90
2019-06-25T03:00:11.092Z,99.90
2019-06-25T03:02:38.198Z,99.90
2019-06-25T03:05:07.915Z,99.90
2019-06-25T03:07:36.887Z,99.90
2019-06-25T03:10:09.053Z,99.90
2019-06-25T03:12:37.590Z,99.90
2019-06-25T03:15:09.513Z,99.90
2019-06-25T03:17:38.134Z,99.90
2019-06-25T03:20:20.356Z,99.90
2019-06-25T03:22:48.966Z,99.90
2019-06-25T03:25:17.590Z,99.90
2019-06-25T03:27:46.136Z,99.90
2019-06-25T03:30:14.940Z,99.90
2019-06-25T03:32:43.493Z,99.90
2019-06-25T03:35:12.264Z,99.90
2019-06-25T03:37:40.833Z,99.90
2019-06-25T03:40:09.761Z,99.90
2019-06-25T03:42:39.130Z,99.90
2019-06-25T03:45:07.942Z,99.90
2019-06-25T03:47:36.505Z,99.90
2019-06-25T03:50:06.449Z,99.90
2019-06-25T03:52:35.036Z,99.90
2019-06-25T03:55:04.824Z,99.90
2019-06-25T03:57:33.394Z,99.90
2019-06-25T04:00:02.133Z,99.90
2019-06-25T04:02:30.980Z,99.90
2019-06-25T04:04:59.514Z,99.90
2019-06-25T04:07:28.086Z,99.90
2019-06-25T04:09:56.633Z,99.90
2019-06-25T04:12:25.194Z,99.90
2019-06-25T04:14:53.878Z,99.90
2019-06-25T04:17:22.439Z,99.90
2019-06-25T04:19:50.979Z,99.90
2019-06-25T04:22:19.547Z,99.90
2019-06-25T04:24:48.085Z,99.90
2019-06-25T04:27:16.642Z,99.90
2019-06-25T04:29:45.124Z,99.90
2019-06-25T04:32:13.756Z,99.90
2019-06-25T04:34:42.303Z,99.90
2019-06-25T04:37:11.075Z,99.90
2019-06-25T04:39:39.586Z,99.90
2019-06-25T04:42:08.158Z,99.90
2019-06-25T04:44:36.689Z,99.90
2019-06-25T04:47:05.250Z,99.90
2019-06-25T04:49:33.790Z,99.90
2019-06-25T04:52:02.446Z,99.90
2019-06-25T04:54:31.063Z,99.90
2019-06-25T04:56:59.621Z,99.90
2019-06-25T04:59:28.091Z,99.90
2019-06-25T05:01:56.742Z,99.90
2019-06-25T05:04:25.352Z,99.90
2019-06-25T05:06:53.914Z,99.90
2019-06-25T05:09:22.517Z,99.90
2019-06-25T05:11:51.062Z,99.90
2019-06-25T05:14:20.548Z,99.90
2019-06-25T05:16:50.329Z,99.90
2019-06-25T05:19:18.982Z,99.90
2019-06-25T05:21:47.831Z,99.90
2019-06-25T05:24:17.728Z,99.90
2019-06-25T05:26:46.339Z,99.90
2019-06-25T05:29:15.308Z,99.90
2019-06-25T05:31:43.868Z,99.90
2019-06-25T05:34:12.487Z,99.90
2019-06-25T05:36:54.676Z,99.90
2019-06-25T05:39:23.237Z,99.90
2019-06-25T05:41:51.779Z,99.90
2019-06-25T05:44:20.423Z,99.90
2019-06-25T05:46:49.030Z,99.90
2019-06-25T05:49:17.607Z,99.90
2019-06-25T05:51:46.138Z,99.90
2019-06-25T05:54:14.983Z,99.90
2019-06-25T05:56:46.496Z,99.90
2019-06-25T05:59:15.121Z,99.90
2019-06-25T06:01:43.662Z,99.90
2019-06-25T06:04:12.235Z,99.90
2019-06-25T06:06:40.780Z,99.90
2019-06-25T06:09:12.085Z,99.90
2019-06-25T06:11:40.640Z,99.90
2019-06-25T06:14:09.352Z,99.90
2019-06-25T06:16:37.967Z,99.90
2019-06-25T06:19:06.682Z,99.90
2019-06-25T06:21:35.228Z,99.90
2019-06-25T06:24:04.066Z,99.90
2019-06-25T06:26:32.622Z,99.90
2019-06-25T06:29:01.314Z,99.90
2019-06-25T06:31:29.887Z,99.90
2019-06-25T06:33:58.522Z,99.90
2019-06-25T06:36:27.069Z,99.90
2019-06-25T06:38:56.372Z,99.90
2019-06-25T06:41:25.052Z,99.90
2019-06-25T06:43:53.763Z,99.90
2019-06-25T06:46:22.316Z,99.90
2019-06-25T06:48:50.947Z,99.90
2019-06-25T06:51:19.548Z,99.90
2019-06-25T06:53:48.470Z,99.90
2019-06-25T06:56:17.065Z,99.90
2019-06-25T06:58:45.707Z,99.90
2019-06-25T07:01:14.588Z,99.90
2019-06-25T07:03:52.567Z,99.90
2019-06-25T07:06:13.548Z,99.90
2019-06-25T07:08:42.183Z,99.90
2019-06-25T07:11:10.897Z,99.90
2019-06-25T07:13:39.711Z,99.90
2019-06-25T07:16:08.416Z,99.90
2019-06-25T07:18:37.024Z,99.90
2019-06-25T07:21:05.717Z,99.90
2019-06-25T07:23:34.329Z,99.90
2019-06-25T07:26:03.335Z,99.90
2019-06-25T07:28:32.016Z,99.90
2019-06-25T07:31:00.673Z,99.90
2019-06-25T07:33:29.261Z,99.90
2019-06-25T07:35:57.851Z,99.90
2019-06-25T07:38:26.369Z,99.90
2019-06-25T07:40:55.013Z,99.90
2019-06-25T07:43:24.250Z,99.90
2019-06-25T07:45:52.886Z,99.90
2019-06-25T07:48:21.478Z,99.90
2019-06-25T07:50:50.573Z,99.90
2019-06-25T07:53:19.252Z,99.90
2019-06-25T07:55:48.176Z,99.90
2019-06-25T07:58:16.764Z,99.90
2019-06-25T08:00:45.329Z,99.90
2019-06-25T08:03:13.942Z,99.90
2019-06-25T08:05:42.507Z,99.90
2019-06-25T08:08:11.114Z,99.90
2019-06-25T08:10:41.727Z,99.90
2019-06-25T08:13:09.939Z,99.90
2019-06-25T08:15:38.506Z,99.90
2019-06-25T08:18:07.122Z,99.90
2019-06-25T08:20:35.761Z,99.90
2019-06-25T08:23:04.591Z,99.90
2019-06-25T08:25:33.216Z,99.90
2019-06-25T08:28:01.768Z,99.90
2019-06-25T08:30:30.405Z,99.90
2019-06-25T08:32:59.083Z,99.90
2019-06-25T08:35:27.655Z,99.90
2019-06-25T08:37:56.196Z,99.90
2019-06-25T08:40:24.922Z,99.90
2019-06-25T08:42:53.436Z,99.90
2019-06-25T08:45:22.450Z,99.90
2019-06-25T08:47:51.323Z,99.90
2019-06-25T08:50:20.330Z,99.90
2019-06-25T08:52:58.100Z,99.90
2019-06-25T08:55:19.337Z,99.90
2019-06-25T08:57:47.868Z,99.90
2019-06-25T09:00:17.998Z,99.90
2019-06-25T09:02:46.818Z,99.90
2019-06-25T09:05:15.914Z,99.90
2019-06-25T09:07:44.531Z,99.90
2019-06-25T09:10:13.763Z,99.90
2019-06-25T09:12:42.405Z,99.90
2019-06-25T09:15:12.192Z,99.90
2019-06-25T09:17:40.783Z,99.90
2019-06-25T09:20:09.648Z,99.90
2019-06-25T09:22:38.218Z,99.90
2019-06-25T09:25:10.518Z,99.90
2019-06-25T09:27:39.087Z,99.90
2019-06-25T09:30:10.249Z,99.90
2019-06-25T09:32:38.964Z,99.90
2019-06-25T09:35:14.609Z,99.90
2019-06-25T09:37:38.455Z,99.90
2019-06-25T09:40:05.975Z,99.90
2019-06-25T09:42:33.416Z,99.90
2019-06-25T09:45:00.903Z,99.90
2019-06-25T09:47:29.792Z,99.90
2019-06-25T09:49:59.844Z,99.20
2019-06-25T09:52:28.415Z,99.80
2019-06-25T09:54:57.379Z,99.90
2019-06-25T09:57:25.923Z,99.00
2019-06-25T09:59:54.525Z,98.80
2019-06-25T10:02:23.115Z,98.90
2019-06-25T10:04:51.777Z,98.60
2019-06-25T10:07:20.353Z,98.50
2019-06-25T10:09:48.893Z,99.10
2019-06-25T10:12:17.459Z,98.80
2019-06-25T10:14:46.165Z,99.30
2019-06-25T10:17:14.722Z,98.30
2019-06-25T10:19:43.268Z,97.60
2019-06-25T10:22:11.844Z,97.60
2019-06-25T10:24:40.377Z,96.80
2019-06-25T10:27:09.030Z,96.80
2019-06-25T10:29:37.598Z,96.90
2019-06-25T10:32:06.289Z,96.30
2019-06-25T10:34:34.837Z,96.00
2019-06-25T10:37:03.299Z,96.50
2019-06-25T10:39:31.867Z,95.60
2019-06-25T10:42:00.409Z,95.10
2019-06-25T10:44:28.968Z,95.70
2019-06-25T10:46:57.527Z,94.30
2019-06-25T10:49:26.091Z,94.70
2019-06-25T10:51:54.646Z,94.00
2019-06-25T10:54:23.270Z,94.70
2019-06-25T10:56:51.740Z,94.30
2019-06-25T10:59:20.301Z,94.70
2019-06-25T11:01:48.862Z,95.20
2019-06-25T11:04:17.439Z,95.20
2019-06-25T11:06:58.873Z,94.60
2019-06-25T11:09:16.189Z,92.90
2019-06-25T11:11:44.798Z,93.50
2019-06-25T11:14:13.396Z,93.70
2019-06-25T11:16:41.933Z,92.80
2019-06-25T11:19:10.497Z,93.50
2019-06-25T11:21:39.048Z,95.80
2019-06-25T11:24:32.423Z,94.10
2019-06-25T11:27:01.023Z,94.60
2019-06-25T11:29:29.669Z,93.60
2019-06-25T11:31:58.195Z,94.70
2019-06-25T11:34:26.807Z,92.70
2019-06-25T11:36:55.379Z,94.10
2019-06-25T11:39:23.960Z,94.30
2019-06-25T11:41:52.754Z,92.60
2019-06-25T11:44:21.252Z,92.30
2019-06-25T11:46:50.257Z,92.60
2019-06-25T11:49:18.980Z,93.40
2019-06-25T11:51:47.513Z,92.70
2019-06-25T11:54:16.077Z,92.90
2019-06-25T11:56:44.616Z,92.50
2019-06-25T11:59:13.206Z,92.50
2019-06-25T12:01:41.846Z,92.20
2019-06-25T12:04:10.410Z,92.00
2019-06-25T12:06:53.457Z,92.20
2019-06-25T12:09:09.141Z,92.20
2019-06-25T12:11:37.778Z,93.40
2019-06-25T12:14:06.324Z,92.40
2019-06-25T12:16:34.953Z,92.60
2019-06-25T12:19:03.506Z,91.60
2019-06-25T12:21:32.067Z,91.20
2019-06-25T12:24:00.608Z,91.50
2019-06-25T12:26:29.171Z,92.00
2019-06-25T12:28:57.783Z,91.00
2019-06-25T12:31:26.345Z,91.40
2019-06-25T12:33:54.820Z,90.50
2019-06-25T12:36:23.450Z,92.50
2019-06-25T12:38:51.924Z,90.20
2019-06-25T12:41:20.473Z,90.20
2019-06-25T12:43:48.935Z,94.30
2019-06-25T12:46:17.512Z,91.50
2019-06-25T12:48:46.055Z,90.40
2019-06-25T12:51:15.306Z,90.10
2019-06-25T12:53:44.068Z,90.90
2019-06-25T12:56:12.626Z,88.80
2019-06-25T12:58:41.441Z,86.90
2019-06-25T13:01:10.330Z,88.10
2019-06-25T13:03:38.957Z,86.40
2019-06-25T13:06:07.539Z,86.60
2019-06-25T13:08:36.179Z,88.00
2019-06-25T13:11:04.832Z,88.70
2019-06-25T13:13:33.799Z,90.10
2019-06-25T13:16:02.446Z,89.20
2019-06-25T13:18:30.995Z,89.00
2019-06-25T13:20:59.560Z,91.80
2019-06-25T13:23:28.094Z,88.20
2019-06-25T13:25:56.669Z,88.70
2019-06-25T13:28:25.206Z,87.70
2019-06-25T13:30:53.842Z,88.30
2019-06-25T13:33:22.395Z,85.20
2019-06-25T13:35:51.007Z,88.60
2019-06-25T13:38:19.659Z,90.00
2019-06-25T13:40:49.191Z,85.60
2019-06-25T13:43:17.734Z,86.00
2019-06-25T13:45:46.278Z,89.10
2019-06-25T13:48:15.454Z,90.10
2019-06-25T13:50:44.061Z,86.00
2019-06-25T13:53:12.652Z,84.00
2019-06-25T13:55:41.413Z,85.50
2019-06-25T13:58:09.990Z,84.10
2019-06-25T14:00:38.840Z,83.40
2019-06-25T14:03:07.434Z,83.50
2019-06-25T14:05:36.074Z,83.70
2019-06-25T14:08:04.918Z,85.70
2019-06-25T14:10:33.871Z,84.10
2019-06-25T14:13:03.093Z,84.10
2019-06-25T14:15:31.661Z,83.80
2019-06-25T14:18:00.194Z,87.60
2019-06-25T14:20:28.843Z,82.30
2019-06-25T14:22:57.505Z,82.10
2019-06-25T14:25:26.268Z,82.90
2019-06-25T14:27:55.170Z,82.50
2019-06-25T14:30:24.082Z,83.00
2019-06-25T14:32:53.005Z,81.70
2019-06-25T14:35:21.710Z,81.50
2019-06-25T14:37:50.375Z,83.90
2019-06-25T14:40:19.400Z,81.10
2019-06-25T14:42:48.113Z,83.00
2019-06-25T14:45:18.345Z,81.30
2019-06-25T14:47:47.022Z,85.50
2019-06-25T14:50:16.343Z,82.00
2019-06-25T14:52:44.995Z,81.10
2019-06-25T14:55:14.335Z,82.40
2019-06-25T14:57:42.967Z,84.10
2019-06-25T15:00:13.287Z,83.40
2019-06-25T15:02:41.844Z,84.80
2019-06-25T15:05:10.965Z,84.10
2019-06-25T15:07:39.689Z,81.50
2019-06-25T15:10:09.308Z,83.50
2019-06-25T15:12:38.231Z,80.60
2019-06-25T15:15:08.071Z,80.90
2019-06-25T15:17:36.895Z,80.40
2019-06-25T15:20:07.004Z,82.00
2019-06-25T15:22:36.531Z,81.00
2019-06-25T15:25:08.611Z,79.50
2019-06-25T15:27:37.259Z,80.00
2019-06-25T15:30:07.101Z,79.80
2019-06-25T15:32:35.701Z,79.50
2019-06-25T15:35:06.768Z,78.60
2019-06-25T15:37:35.550Z,78.70
2019-06-25T15:40:06.032Z,78.80
2019-06-25T15:42:34.630Z,78.30
2019-06-25T15:45:04.442Z,78.60
2019-06-25T15:47:33.011Z,77.70
2019-06-25T15:50:01.562Z,76.60
2019-06-25T15:52:30.142Z,75.10
2019-06-25T15:54:59.130Z,76.80
2019-06-25T15:57:27.678Z,74.90
2019-06-25T15:59:56.255Z,76.50
2019-06-25T16:02:24.796Z,74.00
2019-06-25T16:04:53.382Z,73.90
2019-06-25T16:07:21.909Z,76.00
2019-06-25T16:09:50.499Z,73.50
2019-06-25T16:12:19.033Z,74.80
2019-06-25T16:14:47.638Z,73.20
2019-06-25T16:17:16.170Z,74.40
2019-06-25T16:19:44.756Z,76.20
2019-06-25T16:22:13.294Z,75.40
2019-06-25T16:24:41.876Z,78.30
2019-06-25T16:27:10.418Z,76.90
2019-06-25T16:29:38.995Z,79.50
2019-06-25T16:32:07.887Z,79.10
2019-06-25T16:34:36.458Z,80.70
2019-06-25T16:37:05.019Z,81.10
2019-06-25T16:39:33.608Z,82.30
2019-06-25T16:42:02.214Z,81.90
2019-06-25T16:44:31.648Z,81.70
2019-06-25T16:47:00.254Z,83.20
2019-06-25T16:49:28.846Z,84.00
2019-06-25T16:51:57.515Z,84.40
2019-06-25T16:54:26.786Z,83.50
2019-06-25T16:56:56.188Z,84.00
2019-06-25T16:59:24.739Z,84.40
2019-06-25T17:01:53.528Z,85.10
2019-06-25T17:04:22.594Z,85.80
2019-06-25T17:06:51.154Z,84.00
2019-06-25T17:09:33.945Z,86.30
2019-06-25T17:11:50.731Z,86.60
2019-06-25T17:14:19.302Z,85.70
2019-06-25T17:16:48.530Z,86.40
2019-06-25T17:19:17.894Z,87.40
2019-06-25T17:21:46.476Z,87.70
2019-06-25T17:24:15.051Z,87.20
2019-06-25T17:26:43.671Z,87.90
2019-06-25T17:29:12.279Z,88.00
2019-06-25T17:31:40.916Z,87.70
2019-06-25T17:34:09.459Z,89.60
2019-06-25T17:36:38.369Z,89.90
2019-06-25T17:39:07.872Z,88.80
2019-06-25T17:41:36.453Z,90.30
2019-06-25T17:44:05.055Z,90.00
2019-06-25T17:46:34.741Z,90.10
2019-06-25T17:49:03.402Z,90.10
2019-06-25T17:51:32.176Z,90.80
2019-06-25T17:54:01.242Z,90.70
2019-06-25T17:56:29.850Z,90.80
2019-06-25T17:58:58.756Z,91.20
2019-06-25T18:01:27.446Z,91.60
2019-06-25T18:03:56.130Z,91.20
2019-06-25T18:06:24.665Z,91.30
2019-06-25T18:08:53.252Z,91.10
2019-06-25T18:11:21.857Z,91.00
2019-06-25T18:13:50.437Z,91.00
2019-06-25T18:16:19.113Z,91.60
2019-06-25T18:18:48.143Z,91.80
2019-06-25T18:21:16.674Z,91.70
2019-06-25T18:23:45.272Z,92.10
2019-06-25T18:26:18.200Z,92.60
2019-06-25T18:28:46.784Z,93.10
2019-06-25T18:31:15.322Z,93.10
2019-06-25T18:33:43.978Z,93.40
2019-06-25T18:36:13.872Z,93.40
2019-06-25T18:38:42.741Z,93.50
2019-06-25T18:41:11.337Z,93.70
2019-06-25T18:43:39.938Z,93.90
2019-06-25T18:46:08.480Z,94.20
2019-06-25T18:48:37.099Z,94.10
2019-06-25T18:51:05.643Z,94.10
2019-06-25T18:53:35.213Z,93.90
2019-06-25T18:56:03.823Z,94.30
2019-06-25T18:58:32.367Z,94.60
2019-06-25T19:01:01.453Z,94.80
2019-06-25T19:03:29.989Z,94.90
2019-06-25T19:05:58.569Z,95.00
2019-06-25T19:08:27.087Z,95.00
2019-06-25T19:10:56.173Z,94.90
2019-06-25T19:13:24.667Z,95.10
2019-06-25T19:15:53.188Z,95.50
2019-06-25T19:18:21.763Z,95.70
2019-06-25T19:20:50.335Z,95.60
2019-06-25T19:23:19.248Z,95.60
2019-06-25T19:25:47.823Z,95.90
2019-06-25T19:28:16.429Z,96.40
2019-06-25T19:30:45.279Z,96.80
2019-06-25T19:33:13.811Z,97.20
2019-06-25T19:35:43.192Z,98.20
2019-06-25T19:38:11.806Z,98.70
2019-06-25T19:40:55.053Z,99.50
2019-06-25T19:43:10.711Z,99.90
2019-06-25T19:45:39.454Z,99.90
2019-06-25T19:48:08.323Z,99.90
2019-06-25T19:50:36.886Z,99.90
2019-06-25T19:53:05.429Z,99.90
2019-06-25T19:55:35.546Z,99.90
2019-06-25T19:58:04.699Z,99.90
2019-06-25T20:00:34.954Z,99.90
2019-06-25T20:03:03.917Z,99.90
2019-06-25T20:05:32.723Z,99.90
2019-06-25T20:08:01.328Z,99.90
2019-06-25T20:10:29.886Z,99.90
2019-06-25T20:12:58.422Z,99.90
2019-06-25T20:15:27.397Z,99.90
2019-06-25T20:17:56.970Z,99.90
2019-06-25T20:20:25.584Z,99.90
2019-06-25T20:22:54.977Z,99.90
2019-06-25T20:25:23.615Z,99.90
2019-06-25T20:27:52.264Z,99.90
2019-06-25T20:30:20.937Z,99.90
2019-06-25T20:32:49.578Z,99.90
2019-06-25T20:35:18.739Z,99.90
2019-06-25T20:37:47.411Z,99.90
2019-06-25T20:40:16.083Z,99.90
2019-06-25T20:42:44.663Z,99.90
2019-06-25T20:45:13.526Z,99.90
2019-06-25T20:47:42.176Z,99.90
2019-06-25T20:50:11.257Z,99.90
2019-06-25T20:52:39.834Z,99.90
2019-06-25T20:55:08.550Z,99.90
2019-06-25T20:57:37.214Z,99.90
2019-06-25T21:00:07.813Z,99.90
2019-06-25T21:02:36.632Z,99.90
2019-06-25T21:05:07.629Z,99.90
2019-06-25T21:07:36.137Z,99.90
2019-06-25T21:10:06.537Z,99.90
2019-06-25T21:12:35.269Z,99.90
2019-06-25T21:15:07.516Z,99.90
2019-06-25T21:17:36.742Z,99.90
2019-06-25T21:20:08.676Z,99.90
2019-06-25T21:22:37.246Z,99.90
2019-06-25T21:25:09.602Z,99.90
2019-06-25T21:27:38.182Z,99.90
2019-06-25T21:30:11.392Z,99.90
2019-06-25T21:32:40.053Z,99.90
2019-06-25T21:35:08.810Z,99.90
2019-06-25T21:37:37.469Z,99.90
2019-06-25T21:40:08.157Z,99.90
2019-06-25T21:42:36.807Z,99.90
2019-06-25T21:45:06.790Z,99.90
2019-06-25T21:47:35.369Z,99.90
2019-06-25T21:50:06.011Z,99.90
2019-06-25T21:52:36.086Z,99.90
2019-06-25T21:55:06.332Z,99.90
2019-06-25T21:57:34.863Z,99.90
2019-06-25T22:00:06.293Z,99.90
2019-06-25T22:02:36.502Z,99.90
2019-06-25T22:05:07.131Z,99.90
2019-06-25T22:07:35.749Z,99.90
2019-06-25T22:10:07.204Z,99.90
2019-06-25T22:12:35.776Z,99.90
2019-06-25T22:15:05.959Z,99.90
2019-06-25T22:17:35.266Z,99.90
2019-06-25T22:20:06.321Z,99.90
2019-06-25T22:22:36.212Z,99.90
2019-06-25T22:25:08.092Z,99.90
2019-06-25T22:27:36.743Z,99.90
2019-06-25T22:30:07.711Z,99.90
2019-06-25T22:32:36.373Z,99.90
2019-06-25T22:35:06.282Z,99.90
2019-06-25T22:37:35.186Z,99.90
2019-06-25T22:40:08.338Z,99.90
2019-06-25T22:42:37.917Z,99.90
2019-06-25T22:45:07.232Z,99.90
2019-06-25T22:47:36.206Z,99.90
2019-06-25T22:50:06.906Z,99.90
2019-06-25T22:52:35.514Z,99.90
2019-06-25T22:55:05.814Z,99.90
2019-06-25T22:57:34.600Z,99.90
2019-06-25T23:00:03.776Z,99.90
2019-06-25T23:02:32.399Z,99.90
2019-06-25T23:05:00.938Z,99.90
2019-06-25T23:07:29.571Z,99.90
2019-06-25T23:09:58.164Z,99.90
2019-06-25T23:12:26.805Z,99.90
2019-06-25T23:14:55.615Z,99.90
2019-06-25T23:17:24.127Z,99.90
2019-06-25T23:19:52.809Z,99.90
2019-06-25T23:22:21.481Z,99.90
2019-06-25T23:24:50.030Z,99.90
2019-06-25T23:27:18.983Z,99.90
2019-06-25T23:29:47.567Z,99.90
2019-06-25T23:32:16.070Z,99.90
2019-06-25T23:34:44.536Z,99.90
2019-06-25T23:37:13.252Z,99.90
2019-06-25T23:39:41.720Z,99.90
2019-06-25T23:42:11.137Z,99.90
2019-06-25T23:44:39.684Z,99.90
2019-06-25T23:47:08.268Z,99.90
2019-06-25T23:49:36.806Z,99.90
2019-06-25T23:52:05.407Z,99.90
2019-06-25T23:54:34.248Z,99.90
2019-06-25T23:57:02.790Z,99.90
2019-06-25T23:59:31.374Z,99.90
